createdAt,value
2018-11-03T00:02:09.511Z,10.33
2018-11-03T00:04:38.007Z,7.87
2018-11-03T00:07:06.532Z,7.87
2018-11-03T00:09:35.008Z,10.07
2018-11-03T00:12:03.543Z,9.97
2018-11-03T00:14:32.071Z,7.60
2018-11-03T00:17:00.558Z,12.57
2018-11-03T00:19:29.037Z,13.87
2018-11-03T00:21:57.516Z,21.47
2018-11-03T00:24:26.006Z,55.50
2018-11-03T00:26:54.483Z,147.03
2018-11-03T00:29:22.961Z,109.97
2018-11-03T00:31:51.431Z,37.07
2018-11-03T00:34:19.920Z,77.70
2018-11-03T00:36:48.390Z,45.03
2018-11-03T00:39:16.863Z,55.70
2018-11-03T00:41:45.369Z,39.73
2018-11-03T00:44:13.849Z,25.23
2018-11-03T00:46:42.330Z,44.77
2018-11-03T00:49:10.915Z,284.63
2018-11-03T00:51:39.394Z,36.73
2018-11-03T00:54:07.880Z,38.10
2018-11-03T00:56:36.343Z,29.17
2018-11-03T00:59:04.858Z,172.93
2018-11-03T01:01:33.334Z,73.60
2018-11-03T01:04:01.851Z,29.37
2018-11-03T01:06:30.344Z,24.47
2018-11-03T01:08:58.851Z,121.33
2018-11-03T01:11:27.330Z,73.67
2018-11-03T01:13:55.815Z,307.83
2018-11-03T01:16:24.322Z,225.07
2018-11-03T01:18:52.819Z,103.77
2018-11-03T01:21:21.302Z,227.93
2018-11-03T01:23:49.866Z,98.47
2018-11-03T01:26:18.247Z,86.23
2018-11-03T01:28:46.739Z,153.53
2018-11-03T01:31:15.234Z,131.40
2018-11-03T01:33:43.706Z,55.13
2018-11-03T01:36:12.202Z,33.67
2018-11-03T01:38:40.927Z,74.97
2018-11-03T01:41:09.435Z,19.10
2018-11-03T01:43:37.907Z,57.33
2018-11-03T01:46:06.806Z,13.90
2018-11-03T01:48:35.294Z,16.77
2018-11-03T01:51:03.774Z,15.77
2018-11-03T01:53:32.275Z,31.87
2018-11-03T01:56:00.759Z,20.13
2018-11-03T01:58:29.290Z,23.90
2018-11-03T02:00:57.787Z,15.77
2018-11-03T02:03:26.649Z,22.73
2018-11-03T02:05:55.130Z,14.70
2018-11-03T02:08:23.614Z,16.03
2018-11-03T02:10:52.090Z,24.53
2018-11-03T02:13:20.574Z,21.47
2018-11-03T02:15:49.163Z,26.00
2018-11-03T02:18:17.635Z,23.37
2018-11-03T02:20:46.103Z,14.80
2018-11-03T02:23:14.574Z,10.17
2018-11-03T02:25:43.054Z,32.27
2018-11-03T02:28:11.554Z,170.63
2018-11-03T02:30:40.039Z,57.33
2018-11-03T02:33:08.499Z,74.17
2018-11-03T02:35:36.978Z,82.97
2018-11-03T02:38:05.494Z,60.57
2018-11-03T02:40:33.973Z,43.93
2018-11-03T02:43:02.447Z,22.63
2018-11-03T02:45:30.982Z,30.83
2018-11-03T02:47:59.451Z,21.03
2018-11-03T02:50:27.919Z,18.90
2018-11-03T02:52:56.403Z,16.33
2018-11-03T02:55:24.876Z,14.37
2018-11-03T02:57:53.377Z,18.67
2018-11-03T03:00:21.864Z,12.30
2018-11-03T03:02:50.327Z,14.63
2018-11-03T03:05:18.795Z,78.00
2018-11-03T03:07:47.269Z,144.03
2018-11-03T03:10:24.449Z,58.90
2018-11-03T03:12:53.270Z,17.83
2018-11-03T03:15:21.754Z,27.73
2018-11-03T03:17:50.263Z,41.13
2018-11-03T03:20:18.758Z,124.97
2018-11-03T03:22:47.246Z,63.57
2018-11-03T03:25:15.710Z,69.93
2018-11-03T03:27:44.190Z,55.13
2018-11-03T03:30:12.746Z,17.83
2018-11-03T03:32:41.586Z,15.93
2018-11-03T03:35:10.112Z,16.43
2018-11-03T03:37:38.586Z,41.33
2018-11-03T03:40:07.766Z,16.80
2018-11-03T03:42:36.247Z,21.53
2018-11-03T03:45:05.487Z,7.73
2018-11-03T03:47:33.979Z,11.87
2018-11-03T03:50:02.461Z,12.77
2018-11-03T03:52:31.019Z,11.60
2018-11-03T03:54:59.516Z,9.60
2018-11-03T03:57:28.007Z,9.10
2018-11-03T03:59:56.495Z,20.83
2018-11-03T04:02:24.970Z,18.70
2018-11-03T04:04:53.454Z,14.80
2018-11-03T04:07:21.939Z,12.33
2018-11-03T04:09:50.411Z,11.30
2018-11-03T04:12:18.890Z,45.60
2018-11-03T04:14:47.363Z,111.13
2018-11-03T04:17:15.870Z,195.40
2018-11-03T04:19:44.350Z,241.93
2018-11-03T04:22:12.818Z,188.10
2018-11-03T04:24:41.288Z,106.77
2018-11-03T04:27:09.779Z,37.70
2018-11-03T04:29:38.246Z,22.10
2018-11-03T04:32:06.726Z,23.70
2018-11-03T04:34:35.213Z,17.33
2018-11-03T04:37:03.679Z,12.73
2018-11-03T04:39:32.164Z,13.77
2018-11-03T04:42:00.624Z,11.77
2018-11-03T04:44:29.090Z,20.27
2018-11-03T04:46:57.582Z,5.50
2018-11-03T04:49:26.050Z,5.50
2018-11-03T04:51:54.539Z,9.83
2018-11-03T04:54:23.004Z,9.73
2018-11-03T04:56:51.493Z,22.33
2018-11-03T04:59:19.962Z,13.70
2018-11-03T05:01:48.424Z,87.77
2018-11-03T05:04:16.891Z,68.77
2018-11-03T05:06:45.415Z,191.90
2018-11-03T05:09:14.075Z,248.13
2018-11-03T05:11:42.547Z,156.00
2018-11-03T05:14:11.071Z,127.87
2018-11-03T05:16:39.569Z,118.67
2018-11-03T05:19:08.739Z,34.67
2018-11-03T05:21:37.218Z,6.93
2018-11-03T05:24:05.834Z,21.73
2018-11-03T05:26:34.339Z,4.77
2018-11-03T05:29:02.872Z,4.23
2018-11-03T05:31:34.251Z,5.20
2018-11-03T05:34:03.010Z,4.27
2018-11-03T05:36:31.527Z,6.70
2018-11-03T05:39:00.058Z,4.97
2018-11-03T05:41:28.447Z,5.07
2018-11-03T05:43:56.922Z,23.37
2018-11-03T05:46:25.428Z,32.87
2018-11-03T05:48:54.295Z,22.40
2018-11-03T05:51:22.760Z,17.07
2018-11-03T05:53:51.285Z,4.90
2018-11-03T05:56:19.763Z,5.53
2018-11-03T05:58:48.234Z,6.80
2018-11-03T06:01:16.702Z,5.60
2018-11-03T06:03:45.205Z,5.90
2018-11-03T06:06:13.714Z,134.87
2018-11-03T06:08:42.207Z,29.40
2018-11-03T06:11:10.666Z,42.97
2018-11-03T06:13:39.122Z,3.53
2018-11-03T06:16:07.593Z,5.00
2018-11-03T06:18:36.172Z,5.93
2018-11-03T06:21:04.814Z,6.10
2018-11-03T06:23:33.307Z,6.30
2018-11-03T06:26:01.770Z,23.57
2018-11-03T06:28:30.238Z,6.70
2018-11-03T06:30:58.745Z,10.40
2018-11-03T06:33:27.215Z,12.43
2018-11-03T06:35:55.687Z,11.53
2018-11-03T06:38:24.280Z,11.80
2018-11-03T06:40:52.747Z,8.43
2018-11-03T06:43:21.342Z,9.10
2018-11-03T06:45:49.846Z,26.27
2018-11-03T06:48:18.332Z,42.93
2018-11-03T06:50:46.803Z,6.17
2018-11-03T06:53:15.282Z,4.27
2018-11-03T06:55:43.923Z,180.57
2018-11-03T06:58:12.435Z,182.20
2018-11-03T07:00:40.946Z,53.57
2018-11-03T07:03:09.455Z,28.83
2018-11-03T07:05:37.978Z,17.03
2018-11-03T07:08:06.473Z,5.27
2018-11-03T07:10:34.943Z,5.27
2018-11-03T07:13:03.566Z,4.90
2018-11-03T07:15:32.123Z,5.90
2018-11-03T07:18:00.598Z,5.17
2018-11-03T07:20:29.078Z,5.00
2018-11-03T07:22:57.554Z,3.90
2018-11-03T07:25:26.054Z,4.33
2018-11-03T07:27:54.502Z,4.40
2018-11-03T07:30:22.974Z,4.33
2018-11-03T07:32:51.451Z,3.90
2018-11-03T07:35:20.190Z,4.10
2018-11-03T07:37:48.642Z,4.73
2018-11-03T07:40:17.102Z,3.40
2018-11-03T07:42:45.638Z,3.70
2018-11-03T07:45:14.070Z,3.83
2018-11-03T07:47:42.535Z,4.37
2018-11-03T07:50:12.504Z,4.50
2018-11-03T07:52:41.602Z,4.13
2018-11-03T07:55:11.738Z,4.00
2018-11-03T07:57:40.254Z,4.60
2018-11-03T08:00:10.750Z,4.40
2018-11-03T08:02:39.336Z,6.93
2018-11-03T08:05:08.931Z,4.37
2018-11-03T08:07:37.437Z,10.50
2018-11-03T08:10:06.923Z,6.13
2018-11-03T08:12:35.417Z,5.60
2018-11-03T08:15:04.934Z,5.70
2018-11-03T08:17:33.425Z,5.47
2018-11-03T08:20:01.912Z,4.90
2018-11-03T08:22:30.408Z,5.90
2018-11-03T08:24:58.891Z,5.13
2018-11-03T08:27:27.353Z,9.67
2018-11-03T08:29:55.823Z,6.20
2018-11-03T08:32:24.306Z,4.40
2018-11-03T08:34:52.782Z,6.97
2018-11-03T08:37:21.255Z,5.13
2018-11-03T08:39:49.731Z,4.40
2018-11-03T08:42:18.193Z,4.07
2018-11-03T08:44:46.807Z,4.47
2018-11-03T08:47:15.290Z,4.40
2018-11-03T08:49:43.842Z,6.63
2018-11-03T08:52:12.295Z,4.30
2018-11-03T08:54:40.757Z,4.50
2018-11-03T08:57:09.227Z,4.10
2018-11-03T08:59:37.746Z,5.20
2018-11-03T09:02:06.494Z,5.57
2018-11-03T09:04:34.954Z,10.80
2018-11-03T09:07:03.600Z,5.87
2018-11-03T09:09:32.035Z,8.07
2018-11-03T09:12:00.498Z,6.93
2018-11-03T09:14:29.518Z,6.50
2018-11-03T09:16:57.954Z,5.00
2018-11-03T09:19:26.430Z,4.80
2018-11-03T09:21:55.083Z,5.00
2018-11-03T09:24:23.672Z,4.63
2018-11-03T09:26:52.157Z,7.00
2018-11-03T09:29:20.654Z,8.23
2018-11-03T09:31:49.143Z,7.30
2018-11-03T09:34:17.606Z,12.47
2018-11-03T09:36:46.077Z,13.90
2018-11-03T09:39:14.640Z,9.00
2018-11-03T09:41:43.047Z,9.57
2018-11-03T09:44:11.531Z,7.87
2018-11-03T09:46:40.019Z,18.40
2018-11-03T09:49:08.510Z,10.03
2018-11-03T09:51:36.979Z,6.50
2018-11-03T09:54:05.626Z,9.53
2018-11-03T09:56:34.101Z,5.53
2018-11-03T09:59:02.582Z,7.90
2018-11-03T10:01:31.094Z,10.03
2018-11-03T10:03:59.749Z,13.50
2018-11-03T10:06:28.318Z,18.00
2018-11-03T10:08:56.782Z,8.80
2018-11-03T10:11:25.243Z,9.00
2018-11-03T10:13:53.710Z,7.00
2018-11-03T10:16:22.164Z,9.97
2018-11-03T10:18:50.630Z,8.97
2018-11-03T10:21:19.083Z,8.70
2018-11-03T10:23:47.558Z,10.03
2018-11-03T10:26:16.047Z,7.77
2018-11-03T10:28:44.523Z,8.63
2018-11-03T10:31:12.993Z,9.83
2018-11-03T10:33:41.572Z,10.07
2018-11-03T10:36:09.926Z,11.23
2018-11-03T10:38:38.395Z,15.00
2018-11-03T10:41:06.862Z,11.17
2018-11-03T10:43:35.334Z,11.20
2018-11-03T10:46:03.858Z,11.63
2018-11-03T10:48:32.322Z,11.77
2018-11-03T10:51:00.818Z,9.87
2018-11-03T10:53:29.300Z,9.63
2018-11-03T10:55:57.860Z,9.47
2018-11-03T10:58:26.336Z,9.77
2018-11-03T11:01:00.099Z,11.90
2018-11-03T11:03:33.860Z,8.77
2018-11-03T11:06:07.608Z,9.00
2018-11-03T11:08:41.323Z,7.23
2018-11-03T11:11:14.980Z,8.20
2018-11-03T11:13:43.902Z,9.40
2018-11-03T11:16:12.448Z,11.70
2018-11-03T11:18:40.916Z,10.00
2018-11-03T11:21:09.402Z,8.90
2018-11-03T11:23:37.971Z,13.47
2018-11-03T11:26:06.351Z,12.40
2018-11-03T11:28:34.890Z,11.17
2018-11-03T11:31:03.370Z,10.07
2018-11-03T11:33:31.877Z,16.87
2018-11-03T11:36:00.347Z,9.20
2018-11-03T11:38:28.833Z,9.37
2018-11-03T11:40:57.360Z,9.63
2018-11-03T11:43:25.842Z,8.90
2018-11-03T11:45:54.354Z,7.53
2018-11-03T11:48:22.847Z,12.40
2018-11-03T11:50:51.297Z,8.43
2018-11-03T11:53:19.776Z,7.13
2018-11-03T11:55:48.238Z,9.90
2018-11-03T11:58:16.761Z,11.40
2018-11-03T12:00:45.353Z,7.70
2018-11-03T12:03:14.023Z,6.60
2018-11-03T12:05:42.510Z,6.47
2018-11-03T12:08:10.975Z,7.23
2018-11-03T12:10:39.431Z,6.97
2018-11-03T12:13:07.951Z,6.50
2018-11-03T12:15:36.421Z,7.57
2018-11-03T12:18:04.990Z,6.23
2018-11-03T12:20:33.515Z,6.97
2018-11-03T12:23:01.987Z,6.33
2018-11-03T12:25:30.550Z,7.63
2018-11-03T12:27:58.995Z,6.20
2018-11-03T12:30:27.577Z,6.50
2018-11-03T12:32:56.067Z,7.47
2018-11-03T12:35:24.573Z,8.03
2018-11-03T12:37:53.034Z,9.13
2018-11-03T12:40:21.575Z,8.90
2018-11-03T12:42:50.079Z,7.00
2018-11-03T12:45:18.543Z,11.03
2018-11-03T12:47:47.047Z,10.57
2018-11-03T12:50:17.734Z,11.03
2018-11-03T12:52:46.267Z,10.17
2018-11-03T12:55:14.762Z,10.27
2018-11-03T12:57:43.659Z,10.23
2018-11-03T13:00:14.064Z,7.90
2018-11-03T13:02:43.732Z,9.63
2018-11-03T13:05:12.397Z,13.50
2018-11-03T13:07:42.242Z,11.37
2018-11-03T13:10:11.743Z,12.07
2018-11-03T13:12:40.965Z,16.20
2018-11-03T13:15:10.539Z,18.80
2018-11-03T13:17:39.143Z,26.53
2018-11-03T13:20:09.962Z,21.07
2018-11-03T13:22:38.454Z,21.97
2018-11-03T13:25:07.715Z,23.20
2018-11-03T13:27:36.194Z,23.50
2018-11-03T13:30:05.531Z,22.03
2018-11-03T13:32:33.986Z,22.60
2018-11-03T13:35:02.559Z,20.20
2018-11-03T13:37:31.166Z,24.47
2018-11-03T13:39:59.623Z,22.37
2018-11-03T13:42:28.078Z,21.37
2018-11-03T13:44:56.550Z,24.17
2018-11-03T13:47:25.120Z,20.77
2018-11-03T13:49:53.497Z,21.50
2018-11-03T13:52:21.955Z,25.63
2018-11-03T13:54:50.401Z,24.43
2018-11-03T13:57:18.902Z,25.73
2018-11-03T13:59:47.370Z,22.63
2018-11-03T14:02:15.849Z,20.73
2018-11-03T14:04:44.324Z,26.90
2018-11-03T14:07:12.862Z,20.87
2018-11-03T14:09:41.343Z,22.27
2018-11-03T14:12:09.810Z,23.60
2018-11-03T14:14:38.283Z,25.57
2018-11-03T14:17:06.771Z,23.50
2018-11-03T14:19:35.238Z,29.93
2018-11-03T14:22:03.738Z,26.00
2018-11-03T14:24:32.527Z,30.53
2018-11-03T14:27:01.006Z,29.30
2018-11-03T14:29:29.471Z,29.47
2018-11-03T14:31:57.940Z,29.30
2018-11-03T14:34:26.430Z,30.27
2018-11-03T14:36:54.903Z,26.03
2018-11-03T14:39:23.378Z,28.13
2018-11-03T14:41:51.854Z,36.87
2018-11-03T14:44:20.322Z,34.33
2018-11-03T14:46:48.824Z,35.30
2018-11-03T14:49:17.339Z,35.73
2018-11-03T14:51:45.806Z,37.57
2018-11-03T14:54:14.311Z,32.47
2018-11-03T14:56:42.833Z,32.10
2018-11-03T14:59:11.281Z,30.77
2018-11-03T15:01:39.738Z,29.80
2018-11-03T15:04:08.289Z,34.90
2018-11-03T15:06:36.780Z,34.23
2018-11-03T15:09:06.790Z,29.47
2018-11-03T15:11:35.262Z,27.43
2018-11-03T15:14:03.943Z,31.13
2018-11-03T15:16:32.305Z,31.97
2018-11-03T15:19:00.783Z,29.37
2018-11-03T15:21:29.248Z,27.97
2018-11-03T15:23:57.694Z,30.40
2018-11-03T15:26:26.171Z,37.47
2018-11-03T15:28:54.630Z,38.03
2018-11-03T15:31:23.112Z,43.50
2018-11-03T15:33:51.621Z,45.70
2018-11-03T15:36:20.122Z,45.03
2018-11-03T15:38:48.586Z,34.97
2018-11-03T15:41:17.132Z,31.93
2018-11-03T15:43:45.546Z,32.10
2018-11-03T15:46:14.023Z,35.50
2018-11-03T15:48:42.607Z,31.77
2018-11-03T15:51:11.082Z,36.63
2018-11-03T15:53:39.546Z,39.67
2018-11-03T15:56:08.019Z,39.80
2018-11-03T15:58:36.490Z,32.97
2018-11-03T16:01:05.017Z,36.50
2018-11-03T16:03:33.495Z,32.10
2018-11-03T16:06:01.954Z,38.70
2018-11-03T16:08:30.422Z,36.10
2018-11-03T16:10:58.883Z,32.07
2018-11-03T16:13:27.338Z,40.47
2018-11-03T16:15:55.803Z,37.83
2018-11-03T16:18:24.270Z,41.73
2018-11-03T16:20:52.731Z,38.97
2018-11-03T16:23:21.254Z,41.37
2018-11-03T16:25:49.829Z,38.70
2018-11-03T16:28:18.330Z,44.80
2018-11-03T16:30:46.770Z,33.60
2018-11-03T16:33:15.226Z,40.73
2018-11-03T16:35:43.722Z,42.83
2018-11-03T16:38:12.234Z,40.33
2018-11-03T16:40:40.654Z,34.37
2018-11-03T16:43:09.132Z,35.07
2018-11-03T16:45:37.629Z,32.10
2018-11-03T16:48:06.419Z,39.87
2018-11-03T16:50:34.879Z,33.37
2018-11-03T16:53:03.354Z,35.37
2018-11-03T16:55:31.940Z,39.50
2018-11-03T16:58:00.398Z,36.90
2018-11-03T17:00:28.872Z,33.93
2018-11-03T17:02:57.326Z,29.97
2018-11-03T17:05:25.783Z,35.67
2018-11-03T17:07:54.254Z,36.03
2018-11-03T17:10:22.728Z,38.07
2018-11-03T17:12:51.237Z,34.33
2018-11-03T17:15:19.739Z,38.80
2018-11-03T17:17:48.198Z,43.30
2018-11-03T17:20:16.666Z,34.50
2018-11-03T17:22:45.134Z,35.30
2018-11-03T17:25:13.689Z,38.17
2018-11-03T17:27:42.134Z,33.27
2018-11-03T17:30:13.205Z,42.10
2018-11-03T17:32:42.080Z,41.33
2018-11-03T17:35:11.183Z,37.93
2018-11-03T17:37:39.870Z,39.20
2018-11-03T17:40:09.004Z,38.37
2018-11-03T17:42:37.490Z,31.73
2018-11-03T17:45:06.652Z,33.17
2018-11-03T17:47:35.138Z,37.60
2018-11-03T17:50:04.726Z,37.90
2018-11-03T17:52:33.251Z,34.17
2018-11-03T17:55:01.716Z,36.73
2018-11-03T17:57:30.213Z,37.77
2018-11-03T17:59:58.727Z,41.30
2018-11-03T18:02:27.165Z,41.17
2018-11-03T18:04:55.623Z,37.43
2018-11-03T18:07:24.090Z,32.73
2018-11-03T18:09:52.555Z,45.23
2018-11-03T18:12:21.052Z,38.10
2018-11-03T18:14:49.510Z,35.67
2018-11-03T18:17:17.991Z,41.00
2018-11-03T18:19:46.502Z,33.93
2018-11-03T18:22:14.935Z,37.33
2018-11-03T18:24:43.406Z,33.60
2018-11-03T18:27:11.894Z,35.60
2018-11-03T18:29:40.364Z,48.33
2018-11-03T18:32:08.839Z,37.30
2018-11-03T18:34:37.373Z,43.73
2018-11-03T18:37:05.974Z,44.13
2018-11-03T18:39:34.455Z,41.50
2018-11-03T18:42:02.934Z,41.57
2018-11-03T18:44:31.442Z,43.80
2018-11-03T18:46:59.910Z,38.30
2018-11-03T18:49:28.386Z,46.83
2018-11-03T18:51:56.866Z,37.10
2018-11-03T18:54:25.340Z,40.17
2018-11-03T18:56:53.799Z,42.30
2018-11-03T18:59:22.344Z,41.17
2018-11-03T19:01:51.107Z,42.53
2018-11-03T19:04:19.566Z,46.37
2018-11-03T19:06:48.094Z,41.80
2018-11-03T19:09:16.648Z,43.57
2018-11-03T19:11:45.102Z,49.80
2018-11-03T19:14:13.567Z,45.63
2018-11-03T19:16:42.412Z,49.77
2018-11-03T19:19:11.107Z,56.90
2018-11-03T19:21:40.301Z,55.93
2018-11-03T19:24:08.897Z,65.90
2018-11-03T19:26:37.311Z,57.13
2018-11-03T19:29:05.859Z,55.20
2018-11-03T19:31:34.324Z,53.67
2018-11-03T19:34:02.799Z,45.37
2018-11-03T19:36:31.330Z,46.00
2018-11-03T19:39:00.445Z,44.67
2018-11-03T19:41:28.969Z,32.77
2018-11-03T19:43:57.478Z,26.23
2018-11-03T19:46:26.475Z,25.23
2018-11-03T19:48:54.975Z,23.83
2018-11-03T19:51:23.470Z,22.30
2018-11-03T19:53:52.191Z,20.23
2018-11-03T19:56:20.672Z,18.50
2018-11-03T19:58:49.299Z,18.17
2018-11-03T20:01:18.313Z,16.23
2018-11-03T20:03:46.800Z,15.20
2018-11-03T20:06:15.280Z,18.17
2018-11-03T20:08:43.746Z,21.10
2018-11-03T20:11:12.465Z,16.50
2018-11-03T20:13:41.042Z,15.30
2018-11-03T20:16:09.510Z,16.10
2018-11-03T20:18:37.986Z,14.07
2018-11-03T20:21:06.522Z,16.60
2018-11-03T20:23:35.003Z,17.30
2018-11-03T20:26:03.562Z,121.07
2018-11-03T20:28:32.034Z,31.57
2018-11-03T20:31:00.502Z,20.90
2018-11-03T20:33:29.006Z,25.97
2018-11-03T20:35:57.486Z,15.90
2018-11-03T20:38:25.967Z,19.13
2018-11-03T20:40:54.438Z,16.70
2018-11-03T20:43:22.894Z,13.73
2018-11-03T20:45:51.402Z,14.07
2018-11-03T20:48:19.967Z,12.63
2018-11-03T20:50:52.642Z,24.17
2018-11-03T20:53:21.123Z,35.83
2018-11-03T20:55:49.637Z,18.37
2018-11-03T20:58:18.199Z,16.20
2018-11-03T21:00:46.658Z,15.23
2018-11-03T21:03:15.111Z,12.00
2018-11-03T21:05:43.638Z,14.23
2018-11-03T21:08:12.180Z,19.40
2018-11-03T21:10:40.583Z,11.70
2018-11-03T21:13:09.042Z,11.73
2018-11-03T21:15:37.501Z,18.80
2018-11-03T21:18:05.977Z,13.03
2018-11-03T21:20:34.430Z,14.10
2018-11-03T21:23:02.886Z,15.10
2018-11-03T21:25:31.392Z,8.50
2018-11-03T21:27:59.854Z,12.10
2018-11-03T21:30:28.340Z,11.33
2018-11-03T21:32:56.929Z,9.87
2018-11-03T21:35:25.286Z,7.87
2018-11-03T21:37:53.752Z,10.77
2018-11-03T21:40:22.208Z,11.00
2018-11-03T21:42:50.722Z,9.00
2018-11-03T21:45:19.187Z,23.87
2018-11-03T21:47:47.695Z,12.70
2018-11-03T21:50:16.202Z,8.60
2018-11-03T21:52:44.658Z,9.53
2018-11-03T21:55:13.106Z,14.13
2018-11-03T21:57:41.583Z,12.93
2018-11-03T22:00:11.188Z,9.20
2018-11-03T22:02:39.774Z,16.47
2018-11-03T22:05:09.686Z,12.93
2018-11-03T22:07:38.162Z,14.33
2018-11-03T22:10:06.726Z,16.67
2018-11-03T22:12:35.182Z,14.83
2018-11-03T22:15:03.728Z,18.83
2018-11-03T22:17:32.254Z,22.10
2018-11-03T22:20:01.567Z,10.27
2018-11-03T22:22:30.067Z,11.07
2018-11-03T22:24:58.559Z,12.37
2018-11-03T22:27:27.467Z,9.23
2018-11-03T22:29:55.919Z,11.50
2018-11-03T22:32:24.383Z,11.70
2018-11-03T22:34:52.842Z,12.13
2018-11-03T22:37:21.347Z,21.47
2018-11-03T22:39:49.807Z,19.00
2018-11-03T22:42:18.394Z,17.90
2018-11-03T22:44:46.754Z,16.43
2018-11-03T22:47:15.218Z,18.40
2018-11-03T22:49:43.671Z,12.37
2018-11-03T22:52:12.143Z,11.50
2018-11-03T22:54:40.719Z,20.23
2018-11-03T22:57:09.238Z,12.63
2018-11-03T22:59:37.666Z,12.23
2018-11-03T23:02:06.245Z,17.30
2018-11-03T23:04:34.665Z,11.17
2018-11-03T23:07:03.141Z,16.60
2018-11-03T23:09:31.611Z,16.43
2018-11-03T23:12:00.059Z,13.33
2018-11-03T23:14:28.531Z,15.50
2018-11-03T23:16:57.031Z,8.70
2018-11-03T23:19:28.379Z,13.37
2018-11-03T23:21:56.888Z,13.27
2018-11-03T23:24:25.318Z,11.40
2018-11-03T23:26:53.765Z,9.90
2018-11-03T23:29:22.266Z,11.43
2018-11-03T23:31:50.690Z,14.30
2018-11-03T23:34:19.168Z,9.47
2018-11-03T23:36:47.658Z,14.97
2018-11-03T23:39:16.123Z,12.07
2018-11-03T23:41:44.571Z,14.43
2018-11-03T23:44:13.049Z,12.87
2018-11-03T23:46:41.524Z,12.60
2018-11-03T23:49:09.990Z,13.83
2018-11-03T23:51:38.458Z,14.07
2018-11-03T23:54:06.926Z,14.20
2018-11-03T23:56:35.398Z,13.63
2018-11-03T23:59:03.869Z,11.70
